Bagan Airport


Codes: VYBG/NYU
Name: Bagan Airport
City: Nyaung U
Country: Myanmar [Burma]
Elevation: 312 ft.
Wikipedia:

Photos at Bagan Airport


   Photos courtesy of SpottingLog. You can add your own sightings and photos by signing up for a free trial today.



No photos found.

Weather at Bagan Airport


Time (UTC)DescriptionTempratureWindCloud coverageVisibilityPressureHumidity
13-Jun-2024 03:00Overcast Clouds28°C18 mph, S98%10000m1006hPa79%
13-Jun-2024 06:00Light Rain30°C16 mph, SW99%10000m1005hPa67%
13-Jun-2024 09:00Light Rain30°C20 mph, S91%10000m1003hPa65%
13-Jun-2024 12:00Overcast Clouds29°C18 mph, S89%10000m1003hPa67%
13-Jun-2024 15:00Overcast Clouds28°C18 mph, S99%10000m1004hPa75%
13-Jun-2024 18:00Overcast Clouds28°C18 mph, S100%10000m1004hPa73%
13-Jun-2024 21:00Overcast Clouds27°C16 mph, S100%10000m1003hPa80%
14-Jun-2024 00:00Overcast Clouds27°C16 mph, S99%10000m1004hPa82%
14-Jun-2024 03:00Overcast Clouds30°C16 mph, S100%10000m1005hPa69%
14-Jun-2024 06:00Light Rain34°C16 mph, S100%10000m1002hPa54%
14-Jun-2024 09:00Light Rain34°C13 mph, S100%10000m1000hPa52%
14-Jun-2024 12:00Light Rain32°C13 mph, S99%10000m1001hPa59%
14-Jun-2024 15:00Overcast Clouds30°C13 mph, S100%10000m1004hPa70%
14-Jun-2024 18:00Light Rain28°C13 mph, S98%10000m1003hPa76%
14-Jun-2024 21:00Overcast Clouds27°C13 mph, S100%10000m1002hPa82%
15-Jun-2024 00:00Light Rain27°C13 mph, S100%10000m1003hPa81%
15-Jun-2024 03:00Light Rain31°C13 mph, S99%10000m1004hPa61%
15-Jun-2024 06:00Light Rain34°C11 mph, S98%10000m1002hPa50%
15-Jun-2024 09:00Overcast Clouds35°C9 mph, S100%10000m999hPa45%
15-Jun-2024 12:00Light Rain34°C11 mph, S99%10000m1000hPa50%
15-Jun-2024 15:00Overcast Clouds31°C13 mph, S100%10000m1002hPa62%
15-Jun-2024 18:00Overcast Clouds29°C16 mph, S100%10000m1003hPa70%
15-Jun-2024 21:00Overcast Clouds28°C16 mph, S100%10000m1002hPa79%
16-Jun-2024 00:00Overcast Clouds27°C18 mph, S100%10000m1004hPa81%
16-Jun-2024 03:00Light Rain27°C16 mph, S100%10000m1006hPa83%
16-Jun-2024 06:00Light Rain29°C11 mph, S100%10000m1005hPa70%
16-Jun-2024 09:00Overcast Clouds29°C13 mph, S100%10000m1003hPa65%
16-Jun-2024 12:00Overcast Clouds29°C11 mph, S100%10000m1003hPa69%
16-Jun-2024 15:00Light Rain28°C9 mph, S98%10000m1005hPa77%
16-Jun-2024 18:00Overcast Clouds27°C13 mph, S98%10000m1005hPa83%
16-Jun-2024 21:00Overcast Clouds27°C11 mph, S98%10000m1004hPa83%
17-Jun-2024 00:00Overcast Clouds27°C13 mph, S98%10000m1006hPa82%
17-Jun-2024 03:00Overcast Clouds29°C16 mph, S100%10000m1007hPa71%
17-Jun-2024 06:00Overcast Clouds34°C11 mph, S99%10000m1004hPa52%
17-Jun-2024 09:00Overcast Clouds34°C13 mph, S97%10000m1002hPa52%
17-Jun-2024 12:00Overcast Clouds32°C13 mph, S98%10000m1002hPa58%
17-Jun-2024 15:00Light Rain30°C13 mph, S100%10000m1004hPa67%
17-Jun-2024 18:00Overcast Clouds29°C13 mph, S100%10000m1004hPa74%
17-Jun-2024 21:00Overcast Clouds28°C13 mph, S100%10000m1003hPa78%
18-Jun-2024 00:00Overcast Clouds27°C13 mph, S100%10000m1004hPa79%